createdAt,value
2022-10-05T00:04:26.801Z,10.5
2022-10-05T00:14:29.180Z,10.7
2022-10-05T00:24:30.943Z,11
2022-10-05T00:34:33.541Z,11
2022-10-05T00:44:35.903Z,11.1
2022-10-05T00:54:38.225Z,11.1
2022-10-05T01:04:39.966Z,11.1
2022-10-05T01:14:41.741Z,11
2022-10-05T01:34:46.362Z,11.2
2022-10-05T01:44:48.524Z,11.2
2022-10-05T02:05:02.252Z,11.2
2022-10-05T02:14:55.627Z,11.3
2022-10-05T02:24:57.941Z,11.3
2022-10-05T02:35:00.051Z,11.4
2022-10-05T02:45:02.131Z,11.5
2022-10-05T02:55:03.779Z,11.6
2022-10-05T03:05:06.226Z,11.5
2022-10-05T03:15:08.102Z,11.5
2022-10-05T03:25:09.757Z,11.4
2022-10-05T03:35:11.433Z,11.4
2022-10-05T03:55:15.852Z,11.4
2022-10-05T04:15:19.856Z,11.4
2022-10-05T04:25:22.297Z,11.3
2022-10-05T04:35:24.418Z,11.4
2022-10-05T04:45:26.071Z,11.4
2022-10-05T05:05:30.776Z,11.7
2022-10-05T05:15:33.291Z,11.7
2022-10-05T05:55:40.743Z,12.1
2022-10-05T06:15:44.392Z,12.4
2022-10-05T06:25:46.675Z,12.6
2022-10-05T06:35:49.201Z,12.7
2022-10-05T06:45:51.236Z,12.9
2022-10-05T07:26:00.149Z,13.9
2022-10-05T07:36:02.607Z,14
2022-10-05T07:46:05.159Z,14
2022-10-05T07:56:07.499Z,14
2022-10-05T08:06:09.504Z,14.2
2022-10-05T08:16:11.953Z,14.3
2022-10-05T08:26:14.346Z,14.5
2022-10-05T08:36:16.350Z,14.7
2022-10-05T08:46:18.501Z,14.8
2022-10-05T08:56:23.099Z,14.9
2022-10-05T09:06:23.016Z,15.1
2022-10-05T09:16:25.414Z,15.3
2022-10-05T09:26:27.948Z,15.6
2022-10-05T09:36:30.467Z,15.7
2022-10-05T09:46:32.525Z,15.8
2022-10-05T09:56:34.777Z,15.8
2022-10-05T10:06:36.498Z,16
2022-10-05T10:16:38.132Z,16.4
2022-10-05T10:16:45.090Z,16.4
2022-10-05T10:26:47.534Z,16.4
2022-10-05T10:36:50.426Z,16.4
2022-10-05T10:46:52.284Z,16.5
2022-10-05T10:56:53.630Z,16.5
2022-10-05T11:06:56.145Z,16.6
2022-10-05T11:16:58.168Z,16.8
2022-10-05T11:27:00.579Z,17
2022-10-05T11:37:03.225Z,18
2022-10-05T11:47:05.664Z,18
2022-10-05T11:57:07.224Z,18
2022-10-05T12:07:09.465Z,18.2
2022-10-05T12:17:11.929Z,18.3
2022-10-05T12:47:18.566Z,18.4
2022-10-05T12:57:21.075Z,18.6
2022-10-05T13:07:23.099Z,18.7
2022-10-05T13:17:25.488Z,18.9
2022-10-05T13:37:29.636Z,19.3
2022-10-05T13:57:33.144Z,19.7
2022-10-05T14:57:46.707Z,19.9
2022-10-05T15:07:49.189Z,19.8
2022-10-05T15:17:51.332Z,19.6
2022-10-05T15:27:53.229Z,19.5
2022-10-05T15:37:55.079Z,19.3
2022-10-05T15:57:58.902Z,18.8
2022-10-05T16:18:02.887Z,18.5
2022-10-05T16:28:05.809Z,18.4
2022-10-05T16:38:06.948Z,18.3
2022-10-05T16:48:09.510Z,18.1
2022-10-05T16:58:11.242Z,17.9
2022-10-05T17:08:13.801Z,18.7
2022-10-05T17:18:15.518Z,18.5
2022-10-05T17:28:17.608Z,18.2
2022-10-05T17:38:19.306Z,17.7
2022-10-05T17:48:21.687Z,17.7
2022-10-05T17:58:24.064Z,17.7
2022-10-05T18:18:27.889Z,17.5
2022-10-05T18:28:30.224Z,17.5
2022-10-05T18:38:32.438Z,17.4
2022-10-05T18:48:34.416Z,17.3
2022-10-05T18:58:36.864Z,17.3
2022-10-05T19:08:38.723Z,17.3
2022-10-05T20:28:55.479Z,17.6
2022-10-05T20:38:58.160Z,17.6
2022-10-05T20:49:00.567Z,17.6
2022-10-05T21:09:04.443Z,17.5
2022-10-05T21:19:06.173Z,17.6
2022-10-05T21:29:12.243Z,17.6
2022-10-05T21:39:10.313Z,17.6
2022-10-05T21:49:15.074Z,17.4
2022-10-05T21:59:14.506Z,17.5
2022-10-05T22:09:16.256Z,17.5
2022-10-05T22:19:18.787Z,17.4
2022-10-05T22:29:21.154Z,17.2
2022-10-05T22:39:22.960Z,16.8
2022-10-05T22:49:24.891Z,16.6
2022-10-05T22:59:27.453Z,16.5
2022-10-05T23:09:29.605Z,15.8
2022-10-05T23:19:32.039Z,13.7
2022-10-05T23:29:33.753Z,13.1
2022-10-05T23:39:36.183Z,12.9
2022-10-05T23:49:38.757Z,12.8
2022-10-05T23:59:41.060Z,12.9
